createdAt,value
2018-07-02T00:00:13.092Z,956.1
2018-07-02T00:02:15.948Z,956.1
2018-07-02T00:04:18.805Z,956
2018-07-02T00:06:21.669Z,956
2018-07-02T00:08:25.856Z,956
2018-07-02T00:10:28.753Z,956
2018-07-02T00:12:31.641Z,956
2018-07-02T00:14:34.529Z,956
2018-07-02T00:16:38.396Z,956
2018-07-02T00:18:41.252Z,956
2018-07-02T00:20:44.109Z,955.9
2018-07-02T00:22:48.969Z,955.8
2018-07-02T00:24:51.835Z,955.9
2018-07-02T00:26:54.708Z,955.8
2018-07-02T00:28:57.568Z,955.8
2018-07-02T00:31:00.435Z,955.9
2018-07-02T00:33:03.289Z,955.9
2018-07-02T00:35:06.149Z,956
2018-07-02T00:37:09.031Z,955.9
2018-07-02T00:39:11.920Z,955.9
2018-07-02T00:41:14.769Z,955.9
2018-07-02T00:43:18.167Z,955.9
2018-07-02T00:45:21.479Z,955.8
2018-07-02T00:47:25.201Z,955.8
2018-07-02T00:49:28.160Z,955.8
2018-07-02T00:51:31.042Z,955.9
2018-07-02T00:53:33.902Z,955.9
2018-07-02T00:55:36.776Z,955.8
2018-07-02T00:57:39.732Z,955.8
2018-07-02T00:59:42.640Z,955.8
2018-07-02T01:01:46.483Z,955.7
2018-07-02T01:03:51.064Z,955.7
2018-07-02T01:05:53.920Z,955.7
2018-07-02T01:07:58.461Z,955.7
2018-07-02T01:10:01.407Z,955.7
2018-07-02T01:12:04.290Z,955.6
2018-07-02T01:14:07.173Z,955.6
2018-07-02T01:16:11.083Z,955.6
2018-07-02T01:18:15.911Z,955.6
2018-07-02T01:20:18.769Z,955.6
2018-07-02T01:22:23.243Z,955.6
2018-07-02T01:24:26.109Z,955.6
2018-07-02T01:26:29.847Z,955.6
2018-07-02T01:28:34.406Z,955.5
2018-07-02T01:30:37.279Z,955.5
2018-07-02T01:32:41.644Z,955.5
2018-07-02T01:34:46.699Z,955.6
2018-07-02T01:36:49.563Z,955.6
2018-07-02T01:38:52.459Z,955.6
2018-07-02T01:40:55.321Z,955.6
2018-07-02T01:43:00.647Z,955.7
2018-07-02T01:45:03.551Z,955.7
2018-07-02T01:47:06.418Z,955.7
2018-07-02T01:49:09.267Z,955.8
2018-07-02T01:51:12.984Z,955.8
2018-07-02T01:53:17.830Z,955.8
2018-07-02T01:55:20.695Z,955.8
2018-07-02T01:57:23.545Z,955.8
2018-07-02T01:59:26.408Z,955.9
2018-07-02T02:01:29.265Z,956
2018-07-02T02:03:34.160Z,955.9
2018-07-02T02:05:39.022Z,956.1
2018-07-02T02:07:43.005Z,956.1
2018-07-02T02:09:46.338Z,956.1
2018-07-02T02:11:49.208Z,956
2018-07-02T02:13:52.059Z,956.1
2018-07-02T02:15:54.914Z,956.1
2018-07-02T02:17:57.769Z,956.1
2018-07-02T02:20:00.745Z,956.1
2018-07-02T02:22:04.688Z,956
2018-07-02T02:24:09.587Z,956.1
2018-07-02T02:26:12.641Z,956.1
2018-07-02T02:28:15.491Z,956.1
2018-07-02T02:30:18.343Z,956.1
2018-07-02T02:32:21.213Z,956.1
2018-07-02T02:34:24.064Z,956.1
2018-07-02T02:36:26.925Z,956.1
2018-07-02T02:38:30.795Z,956.1
2018-07-02T02:40:34.650Z,956.1
2018-07-02T02:42:39.496Z,956.2
2018-07-02T02:44:42.355Z,956.1
2018-07-02T02:46:45.211Z,956.1
2018-07-02T02:48:48.076Z,956.2
2018-07-02T02:50:50.934Z,956.2
2018-07-02T02:52:53.788Z,956.2
2018-07-02T02:54:56.660Z,956.3
2018-07-02T02:56:59.539Z,956.2
2018-07-02T02:59:02.872Z,956.3
2018-07-02T03:01:07.896Z,956.3
2018-07-02T03:03:10.713Z,956.3
2018-07-02T03:05:13.581Z,956.3
2018-07-02T03:07:16.483Z,956.2
2018-07-02T03:09:19.336Z,956.2
2018-07-02T03:11:22.201Z,956.2
2018-07-02T03:13:25.857Z,956.2
2018-07-02T03:15:30.325Z,956.3
2018-07-02T03:17:33.243Z,956.3
2018-07-02T03:19:36.117Z,956.3
2018-07-02T03:21:39.194Z,956.4
2018-07-02T03:23:42.996Z,956.4
2018-07-02T03:25:46.071Z,956.4
2018-07-02T03:27:50.166Z,956.5
2018-07-02T03:29:55.212Z,956.5
2018-07-02T03:31:58.901Z,956.5
2018-07-02T03:34:04.960Z,956.5
2018-07-02T03:36:07.827Z,956.5
2018-07-02T03:38:10.675Z,956.4
2018-07-02T03:40:13.543Z,956.4
2018-07-02T03:42:16.391Z,956.4
2018-07-02T03:44:19.253Z,956.4
2018-07-02T03:46:22.111Z,956.3
2018-07-02T03:48:25.203Z,956.3
2018-07-02T03:50:28.050Z,956.3
2018-07-02T03:52:33.661Z,956.3
2018-07-02T03:54:38.939Z,956.5
2018-07-02T03:56:44.078Z,956.5
2018-07-02T03:58:47.771Z,956.5
2018-07-02T04:00:52.694Z,956.4
2018-07-02T04:02:55.911Z,956.4
2018-07-02T04:04:58.791Z,956.4
2018-07-02T04:07:01.712Z,956.4
2018-07-02T04:09:05.610Z,956.3
2018-07-02T04:11:08.742Z,956.3
2018-07-02T04:13:11.602Z,956.3
2018-07-02T04:15:14.453Z,956.3
2018-07-02T04:17:17.369Z,956.3
2018-07-02T04:19:21.654Z,956.3
2018-07-02T04:21:28.565Z,956.3
2018-07-02T04:23:36.336Z,956.4
2018-07-02T04:25:41.013Z,956.4
2018-07-02T04:27:43.874Z,956.4
2018-07-02T04:29:47.640Z,956.4
2018-07-02T04:31:52.886Z,956.4
2018-07-02T04:33:56.709Z,956.4
2018-07-02T04:36:01.544Z,956.6
2018-07-02T04:38:05.353Z,956.5
2018-07-02T04:40:09.268Z,956.6
2018-07-02T04:42:14.182Z,956.6
2018-07-02T04:44:18.026Z,956.6
2018-07-02T04:46:23.224Z,956.6
2018-07-02T04:48:27.447Z,956.7
2018-07-02T04:50:35.009Z,956.7
2018-07-02T04:52:40.252Z,956.7
2018-07-02T04:54:46.070Z,956.7
2018-07-02T04:56:53.221Z,956.7
2018-07-02T04:59:02.063Z,956.8
2018-07-02T05:01:06.865Z,956.7
2018-07-02T05:03:09.709Z,956.8
2018-07-02T05:05:12.552Z,956.8
2018-07-02T05:07:15.485Z,956.9
2018-07-02T05:09:18.329Z,956.9
2018-07-02T05:11:21.170Z,957
2018-07-02T05:13:24.039Z,957
2018-07-02T05:15:26.883Z,957
2018-07-02T05:17:29.721Z,956.9
2018-07-02T05:19:32.575Z,956.8
2018-07-02T05:21:35.418Z,956.8
2018-07-02T05:23:38.261Z,956.8
2018-07-02T05:25:41.264Z,956.8
2018-07-02T05:27:44.104Z,956.8
2018-07-02T05:29:46.947Z,956.8
2018-07-02T05:31:49.788Z,956.9
2018-07-02T05:33:52.631Z,956.8
2018-07-02T05:35:55.475Z,956.8
2018-07-02T05:37:58.315Z,956.8
2018-07-02T05:40:01.205Z,956.7
2018-07-02T05:42:04.040Z,956.7
2018-07-02T05:44:06.882Z,956.6
2018-07-02T05:46:09.723Z,956.5
2018-07-02T05:48:12.565Z,956.6
2018-07-02T05:50:15.408Z,956.7
2018-07-02T05:52:18.252Z,956.8
2018-07-02T05:54:21.091Z,956.8
2018-07-02T05:56:23.935Z,956.9
2018-07-02T05:58:26.905Z,956.9
2018-07-02T06:00:30.099Z,956.8
2018-07-02T06:02:33.311Z,956.7
2018-07-02T06:04:36.155Z,956.8
2018-07-02T06:06:38.995Z,956.9
2018-07-02T06:08:41.846Z,956.8
2018-07-02T06:10:44.687Z,956.8
2018-07-02T06:12:47.562Z,956.8
2018-07-02T06:14:50.704Z,956.8
2018-07-02T06:16:53.555Z,956.9
2018-07-02T06:19:12.160Z,956.8
2018-07-02T06:21:15.010Z,956.8
2018-07-02T06:23:17.850Z,956.7
2018-07-02T06:25:20.695Z,956.7
2018-07-02T06:27:23.542Z,956.8
2018-07-02T06:29:26.397Z,956.9
2018-07-02T06:31:29.241Z,956.8
2018-07-02T06:33:32.085Z,956.7
2018-07-02T06:35:34.927Z,956.8
2018-07-02T06:37:37.772Z,956.8
2018-07-02T06:39:40.617Z,956.7
2018-07-02T06:41:43.461Z,956.7
2018-07-02T06:43:46.309Z,956.8
2018-07-02T06:45:54.121Z,956.8
2018-07-02T06:47:57.278Z,956.7
2018-07-02T06:50:00.101Z,956.7
2018-07-02T06:52:02.942Z,956.7
2018-07-02T06:54:05.799Z,956.7
2018-07-02T06:56:08.631Z,956.8
2018-07-02T06:58:11.506Z,956.7
2018-07-02T07:00:14.349Z,956.7
2018-07-02T07:02:17.189Z,956.7
2018-07-02T07:04:20.041Z,956.7
2018-07-02T07:06:22.886Z,956.6
2018-07-02T07:08:25.724Z,956.6
2018-07-02T07:10:28.580Z,956.6
2018-07-02T07:12:31.423Z,956.6
2018-07-02T07:14:34.272Z,956.7
2018-07-02T07:16:37.122Z,956.7
2018-07-02T07:18:39.954Z,956.6
2018-07-02T07:20:43.060Z,956.6
2018-07-02T07:22:45.993Z,956.6
2018-07-02T07:24:48.836Z,956.6
2018-07-02T07:26:52.672Z,956.7
2018-07-02T07:28:55.585Z,956.6
2018-07-02T07:30:58.443Z,956.7
2018-07-02T07:33:01.251Z,956.7
2018-07-02T07:35:04.117Z,956.7
2018-07-02T07:37:06.960Z,956.6
2018-07-02T07:39:09.804Z,956.7
2018-07-02T07:41:12.649Z,956.7
2018-07-02T07:43:15.547Z,956.7
2018-07-02T07:45:18.383Z,956.7
2018-07-02T07:47:21.225Z,956.8
2018-07-02T07:49:24.097Z,956.7
2018-07-02T07:51:26.940Z,956.7
2018-07-02T07:53:29.787Z,956.7
2018-07-02T07:55:32.627Z,956.7
2018-07-02T07:57:35.473Z,956.7
2018-07-02T07:59:38.319Z,956.7
2018-07-02T08:01:41.369Z,956.7
2018-07-02T08:03:44.409Z,956.7
2018-07-02T08:05:47.621Z,956.7
2018-07-02T08:07:50.465Z,956.8
2018-07-02T08:09:53.308Z,956.7
2018-07-02T08:11:56.254Z,956.9
2018-07-02T08:13:59.093Z,956.8
2018-07-02T08:16:01.940Z,956.7
2018-07-02T08:18:04.783Z,956.6
2018-07-02T08:20:10.339Z,956.6
2018-07-02T08:22:13.202Z,956.5
2018-07-02T08:24:16.050Z,956.6
2018-07-02T08:26:18.893Z,956.5
2018-07-02T08:28:21.741Z,956.6
2018-07-02T08:30:24.593Z,956.6
2018-07-02T08:32:27.470Z,956.6
2018-07-02T08:34:30.311Z,956.6
2018-07-02T08:36:33.163Z,956.6
2018-07-02T08:38:36.216Z,956.5
2018-07-02T08:40:39.062Z,956.5
2018-07-02T08:42:41.904Z,956.5
2018-07-02T08:44:44.748Z,956.4
2018-07-02T08:46:48.611Z,956.4
2018-07-02T08:48:51.583Z,956.4
2018-07-02T08:50:56.945Z,956.4
2018-07-02T08:52:59.790Z,956.4
2018-07-02T08:55:02.809Z,956.4
2018-07-02T08:57:05.653Z,956.5
2018-07-02T08:59:08.499Z,956.5
2018-07-02T09:01:11.342Z,956.5
2018-07-02T09:03:14.187Z,956.4
2018-07-02T09:05:17.030Z,956.5
2018-07-02T09:07:19.874Z,956.4
2018-07-02T09:09:22.717Z,956.4
2018-07-02T09:11:25.562Z,956.4
2018-07-02T09:13:28.402Z,956.5
2018-07-02T09:15:31.246Z,956.4
2018-07-02T09:17:34.157Z,956.4
2018-07-02T09:19:36.955Z,956.3
2018-07-02T09:21:39.817Z,956.4
2018-07-02T09:23:42.722Z,956.3
2018-07-02T09:25:45.526Z,956.3
2018-07-02T09:27:48.371Z,956.3
2018-07-02T09:29:51.225Z,956.4
2018-07-02T09:31:54.073Z,956.4
2018-07-02T09:33:56.915Z,956.3
2018-07-02T09:35:59.847Z,956.2
2018-07-02T09:38:02.686Z,956.2
2018-07-02T09:40:05.528Z,956.3
2018-07-02T09:42:08.370Z,956.2
2018-07-02T09:44:11.358Z,956.2
2018-07-02T09:46:14.203Z,956.2
2018-07-02T09:48:17.045Z,956.1
2018-07-02T09:50:19.887Z,956.1
2018-07-02T09:52:22.729Z,956.1
2018-07-02T09:54:25.758Z,956.1
2018-07-02T09:56:28.826Z,956.1
2018-07-02T09:58:31.684Z,956.1
2018-07-02T10:00:34.627Z,956.1
2018-07-02T10:02:37.543Z,956.1
2018-07-02T10:04:41.324Z,955.9
2018-07-02T10:06:44.168Z,956
2018-07-02T10:08:47.033Z,956
2018-07-02T10:10:49.876Z,955.9
2018-07-02T10:12:52.726Z,955.9
2018-07-02T10:14:55.562Z,955.8
2018-07-02T10:16:58.410Z,955.9
2018-07-02T10:19:01.255Z,955.8
2018-07-02T10:21:04.131Z,955.8
2018-07-02T10:23:06.947Z,955.8
2018-07-02T10:25:09.784Z,955.8
2018-07-02T10:27:12.632Z,955.7
2018-07-02T10:29:15.633Z,955.7
2018-07-02T10:31:18.853Z,955.7
2018-07-02T10:33:22.083Z,955.7
2018-07-02T10:35:24.928Z,955.7
2018-07-02T10:37:27.802Z,955.6
2018-07-02T10:39:30.638Z,955.6
2018-07-02T10:41:33.481Z,955.7
2018-07-02T10:43:36.321Z,955.6
2018-07-02T10:45:39.166Z,955.6
2018-07-02T10:47:42.007Z,955.6
2018-07-02T10:49:44.849Z,955.5
2018-07-02T10:51:47.693Z,955.5
2018-07-02T10:53:50.535Z,955.5
2018-07-02T10:55:53.381Z,955.5
2018-07-02T10:57:56.230Z,955.5
2018-07-02T10:59:59.113Z,955.4
2018-07-02T11:02:01.959Z,955.4
2018-07-02T11:04:04.802Z,955.4
2018-07-02T11:06:07.645Z,955.4
2018-07-02T11:08:10.493Z,955.3
2018-07-02T11:10:16.539Z,955.4
2018-07-02T11:12:19.334Z,955.3
2018-07-02T11:14:22.179Z,955.3
2018-07-02T11:16:25.034Z,955.3
2018-07-02T11:18:27.873Z,955.4
2018-07-02T11:20:30.719Z,955.4
2018-07-02T11:22:33.586Z,955.3
2018-07-02T11:24:36.430Z,955.3
2018-07-02T11:26:39.269Z,955.2
2018-07-02T11:28:42.119Z,955.2
2018-07-02T11:30:44.958Z,955.2
2018-07-02T11:32:47.800Z,955.3
2018-07-02T11:34:51.575Z,955.3
2018-07-02T11:36:54.423Z,955.2
2018-07-02T11:38:57.263Z,955.1
2018-07-02T11:41:00.107Z,955.2
2018-07-02T11:43:02.956Z,955.2
2018-07-02T11:45:05.797Z,955.1
2018-07-02T11:47:08.673Z,955.1
2018-07-02T11:49:11.523Z,955.1
2018-07-02T11:51:14.368Z,955
2018-07-02T11:53:17.211Z,955.1
2018-07-02T11:55:26.793Z,955
2018-07-02T11:57:29.837Z,955
2018-07-02T11:59:32.747Z,954.9
2018-07-02T12:01:35.593Z,954.9
2018-07-02T12:03:38.436Z,954.9
2018-07-02T12:05:45.225Z,955
2018-07-02T12:07:48.494Z,954.9
2018-07-02T12:09:53.244Z,954.9
2018-07-02T12:12:04.365Z,954.9
2018-07-02T12:14:07.154Z,954.8
2018-07-02T12:16:12.682Z,954.8
2018-07-02T12:18:15.528Z,954.8
2018-07-02T12:20:18.374Z,954.8
2018-07-02T12:22:21.479Z,954.9
2018-07-02T12:24:24.319Z,954.8
2018-07-02T12:26:27.162Z,954.9
2018-07-02T12:28:30.013Z,954.9
2018-07-02T12:30:33.790Z,954.9
2018-07-02T12:32:36.645Z,954.9
2018-07-02T12:34:39.476Z,954.9
2018-07-02T12:36:42.331Z,954.9
2018-07-02T12:38:45.176Z,954.9
2018-07-02T12:40:48.022Z,954.9
2018-07-02T12:42:50.862Z,954.9
2018-07-02T12:44:53.714Z,954.9
2018-07-02T12:46:56.558Z,954.9
2018-07-02T12:48:59.402Z,954.8
2018-07-02T12:51:02.249Z,954.9
2018-07-02T12:53:05.096Z,954.8
2018-07-02T12:55:07.945Z,954.7
2018-07-02T12:57:10.797Z,954.8
2018-07-02T12:59:13.679Z,954.8
2018-07-02T13:01:16.522Z,954.8
2018-07-02T13:03:19.869Z,954.8
2018-07-02T13:05:22.707Z,954.7
2018-07-02T13:07:25.549Z,954.6
2018-07-02T13:09:28.395Z,954.6
2018-07-02T13:11:31.239Z,954.6
2018-07-02T13:13:34.289Z,954.6
2018-07-02T13:15:37.186Z,954.7
2018-07-02T13:17:40.030Z,954.6
2018-07-02T13:19:42.874Z,954.6
2018-07-02T13:21:46.747Z,954.6
2018-07-02T13:23:49.636Z,954.6
2018-07-02T13:25:52.743Z,954.6
2018-07-02T13:27:55.583Z,954.6
2018-07-02T13:29:58.557Z,954.6
2018-07-02T13:32:01.639Z,954.6
2018-07-02T13:34:04.471Z,954.6
2018-07-02T13:36:07.316Z,954.6
2018-07-02T13:38:10.187Z,954.6
2018-07-02T13:40:13.036Z,954.6
2018-07-02T13:42:15.877Z,954.7
2018-07-02T13:44:18.721Z,954.6
2018-07-02T13:46:21.565Z,954.7
2018-07-02T13:48:24.408Z,954.7
2018-07-02T13:50:27.253Z,954.7
2018-07-02T13:52:30.146Z,954.7
2018-07-02T13:54:32.983Z,954.8
2018-07-02T13:56:35.827Z,954.7
2018-07-02T13:58:38.671Z,954.7
2018-07-02T14:00:41.516Z,954.7
2018-07-02T14:02:44.379Z,954.7
2018-07-02T14:04:47.221Z,954.7
2018-07-02T14:06:50.066Z,954.7
2018-07-02T14:08:52.908Z,954.7
2018-07-02T14:10:55.762Z,954.7
2018-07-02T14:12:58.606Z,954.6
2018-07-02T14:15:01.450Z,954.6
2018-07-02T14:17:04.296Z,954.7
2018-07-02T14:19:07.345Z,954.6
2018-07-02T14:21:10.190Z,954.7
2018-07-02T14:23:13.031Z,954.6
2018-07-02T14:25:15.878Z,954.6
2018-07-02T14:27:18.996Z,954.6
2018-07-02T14:29:21.850Z,954.7
2018-07-02T14:31:24.724Z,954.6
2018-07-02T14:33:27.575Z,954.6
2018-07-02T14:35:30.424Z,954.6
2018-07-02T14:37:33.263Z,954.5
2018-07-02T14:39:36.280Z,954.5
2018-07-02T14:41:39.128Z,954.4
2018-07-02T14:43:41.964Z,954.4
2018-07-02T14:45:44.808Z,954.4
2018-07-02T14:47:47.652Z,954.3
2018-07-02T14:49:50.496Z,954.3
2018-07-02T14:51:53.341Z,954.3
2018-07-02T14:53:56.184Z,954.2
2018-07-02T14:55:59.028Z,954.2
2018-07-02T14:58:02.973Z,954.2
2018-07-02T15:00:05.882Z,954.2
2018-07-02T15:02:08.794Z,954.1
2018-07-02T15:04:11.639Z,954.1
2018-07-02T15:06:14.481Z,954
2018-07-02T15:08:17.355Z,954
2018-07-02T15:10:21.185Z,954
2018-07-02T15:12:23.980Z,954
2018-07-02T15:14:26.846Z,954
2018-07-02T15:16:29.687Z,953.9
2018-07-02T15:18:32.529Z,954
2018-07-02T15:20:35.373Z,954
2018-07-02T15:22:38.223Z,954
2018-07-02T15:24:41.088Z,954.1
2018-07-02T15:26:43.926Z,954.1
2018-07-02T15:28:46.772Z,954
2018-07-02T15:30:50.548Z,954.1
2018-07-02T15:32:53.403Z,954.1
2018-07-02T15:34:56.230Z,954.1
2018-07-02T15:36:59.074Z,954.1
2018-07-02T15:39:01.916Z,954.2
2018-07-02T15:41:04.979Z,954.2
2018-07-02T15:43:07.829Z,954.2
2018-07-02T15:45:10.667Z,954.2
2018-07-02T15:47:13.511Z,954.2
2018-07-02T15:49:16.354Z,954.1
2018-07-02T15:51:19.200Z,954.2
2018-07-02T15:53:22.041Z,954.2
2018-07-02T15:55:24.885Z,954.1
2018-07-02T15:57:28.729Z,954.1
2018-07-02T15:59:31.572Z,954.2
2018-07-02T16:01:34.420Z,954.2
2018-07-02T16:03:37.384Z,954.2
2018-07-02T16:05:40.226Z,954.2
2018-07-02T16:07:43.070Z,954.2
2018-07-02T16:09:45.917Z,954.1
2018-07-02T16:11:48.760Z,954.1
2018-07-02T16:13:51.656Z,954.1
2018-07-02T16:15:54.454Z,954.1
2018-07-02T16:17:57.332Z,954
2018-07-02T16:20:00.180Z,954
2018-07-02T16:22:03.022Z,954
2018-07-02T16:24:05.871Z,954
2018-07-02T16:26:08.711Z,954
2018-07-02T16:28:11.557Z,954
2018-07-02T16:30:14.398Z,954
2018-07-02T16:32:17.244Z,954
2018-07-02T16:34:20.093Z,953.9
2018-07-02T16:36:22.937Z,954
2018-07-02T16:38:25.792Z,954
2018-07-02T16:40:28.682Z,954
2018-07-02T16:42:31.525Z,954.1
2018-07-02T16:44:34.369Z,954.1
2018-07-02T16:46:37.209Z,954
2018-07-02T16:48:40.057Z,954
2018-07-02T16:50:42.897Z,953.9
2018-07-02T16:52:45.847Z,954
2018-07-02T16:54:48.908Z,954
2018-07-02T16:56:51.856Z,953.9
2018-07-02T16:58:54.706Z,953.9
2018-07-02T17:00:57.552Z,953.9
2018-07-02T17:03:00.437Z,953.8
2018-07-02T17:05:03.283Z,953.8
2018-07-02T17:07:06.125Z,953.8
2018-07-02T17:09:08.976Z,953.8
2018-07-02T17:11:11.821Z,953.8
2018-07-02T17:13:14.735Z,953.8
2018-07-02T17:15:17.581Z,953.8
2018-07-02T17:17:20.426Z,953.8
2018-07-02T17:19:23.299Z,953.9
2018-07-02T17:21:26.143Z,953.9
2018-07-02T17:23:28.989Z,953.9
2018-07-02T17:25:31.888Z,954
2018-07-02T17:27:34.730Z,954.1
2018-07-02T17:29:37.576Z,954
2018-07-02T17:31:40.601Z,954.1
2018-07-02T17:33:43.450Z,954.1
2018-07-02T17:35:46.293Z,954.1
2018-07-02T17:37:49.140Z,954
2018-07-02T17:39:51.982Z,954.1
2018-07-02T17:41:54.827Z,954.1
2018-07-02T17:43:57.668Z,954.1
2018-07-02T17:46:00.516Z,954.1
2018-07-02T17:48:03.386Z,954.2
2018-07-02T17:50:06.235Z,954.2
2018-07-02T17:52:09.076Z,954.3
2018-07-02T17:54:11.941Z,954.4
2018-07-02T17:56:14.834Z,954.5
2018-07-02T17:58:17.673Z,954.6
2018-07-02T18:00:20.521Z,954.6
2018-07-02T18:02:23.367Z,954.6
2018-07-02T18:04:26.267Z,954.6
2018-07-02T18:06:29.111Z,954.6
2018-07-02T18:08:31.955Z,954.6
2018-07-02T18:10:34.871Z,954.6
2018-07-02T18:12:37.772Z,954.6
2018-07-02T18:14:40.629Z,954.7
2018-07-02T18:16:43.473Z,954.7
2018-07-02T18:18:46.317Z,954.7
2018-07-02T18:20:49.165Z,954.7
2018-07-02T18:22:52.067Z,954.7
2018-07-02T18:24:54.934Z,954.7
2018-07-02T18:26:57.764Z,954.7
2018-07-02T18:29:00.799Z,954.8
2018-07-02T18:31:03.646Z,954.7
2018-07-02T18:33:06.492Z,954.8
2018-07-02T18:35:10.361Z,954.8
2018-07-02T18:37:13.186Z,954.8
2018-07-02T18:39:16.029Z,954.8
2018-07-02T18:41:19.084Z,954.8
2018-07-02T18:43:22.073Z,954.8
2018-07-02T18:45:25.411Z,954.9
2018-07-02T18:47:28.265Z,954.9
2018-07-02T18:49:31.107Z,954.9
2018-07-02T18:51:34.909Z,954.9
2018-07-02T18:53:37.748Z,955
2018-07-02T18:55:40.594Z,955
2018-07-02T18:57:43.501Z,955.1
2018-07-02T18:59:49.270Z,955.1
2018-07-02T19:01:52.107Z,955.1
2018-07-02T19:03:54.958Z,955.1
2018-07-02T19:05:58.026Z,955.2
2018-07-02T19:08:00.879Z,955.1
2018-07-02T19:10:04.693Z,955.2
2018-07-02T19:12:07.808Z,955.2
2018-07-02T19:14:10.658Z,955.2
2018-07-02T19:16:13.582Z,955.2
2018-07-02T19:18:16.493Z,955.2
2018-07-02T19:20:19.336Z,955.2
2018-07-02T19:22:22.183Z,955.2
2018-07-02T19:24:25.059Z,955.2
2018-07-02T19:26:27.944Z,955.2
2018-07-02T19:28:30.833Z,955.2
2018-07-02T19:30:33.874Z,955.2
2018-07-02T19:32:36.721Z,955.3
2018-07-02T19:34:39.562Z,955.2
2018-07-02T19:36:42.406Z,955.2
2018-07-02T19:38:45.251Z,955.2
2018-07-02T19:40:49.163Z,955.1
2018-07-02T19:42:51.980Z,955.2
2018-07-02T19:44:57.732Z,955.2
2018-07-02T19:47:00.577Z,955.2
2018-07-02T19:49:03.443Z,955.2
2018-07-02T19:51:06.290Z,955.2
2018-07-02T19:53:09.134Z,955.1
2018-07-02T19:55:11.975Z,955.1
2018-07-02T19:57:14.820Z,955.2
2018-07-02T19:59:17.683Z,955.2
2018-07-02T20:01:20.508Z,955.2
2018-07-02T20:03:23.352Z,955.2
2018-07-02T20:05:26.199Z,955.2
2018-07-02T20:07:29.124Z,955.2
2018-07-02T20:09:31.954Z,955.1
2018-07-02T20:11:34.809Z,955.1
2018-07-02T20:13:37.706Z,955.1
2018-07-02T20:15:40.558Z,955.1
2018-07-02T20:17:43.507Z,955
2018-07-02T20:19:46.352Z,955
2018-07-02T20:21:49.197Z,955
2018-07-02T20:23:52.114Z,955
2018-07-02T20:25:55.089Z,954.9
2018-07-02T20:27:57.948Z,954.9
2018-07-02T20:30:00.793Z,954.9
2018-07-02T20:32:04.562Z,955
2018-07-02T20:34:07.406Z,954.9
2018-07-02T20:36:10.249Z,954.9
2018-07-02T20:38:13.097Z,955
2018-07-02T20:40:15.936Z,955.1
2018-07-02T20:42:19.001Z,955
2018-07-02T20:44:21.840Z,954.9
2018-07-02T20:46:24.685Z,954.9
2018-07-02T20:48:27.530Z,955
2018-07-02T20:50:31.355Z,955.1
2018-07-02T20:52:34.172Z,955.2
2018-07-02T20:54:36.993Z,955.1
2018-07-02T20:56:39.839Z,955.2
2018-07-02T20:58:42.689Z,955.1
2018-07-02T21:00:45.536Z,955.1
2018-07-02T21:02:48.385Z,955.1
2018-07-02T21:04:52.279Z,955.1
2018-07-02T21:06:55.128Z,955
2018-07-02T21:08:57.973Z,955
2018-07-02T21:11:00.827Z,955.1
2018-07-02T21:13:11.353Z,955
2018-07-02T21:15:17.021Z,955.1
2018-07-02T21:17:20.079Z,955
2018-07-02T21:19:22.924Z,955
2018-07-02T21:21:25.841Z,955
2018-07-02T21:23:36.114Z,955
2018-07-02T21:25:41.670Z,955.1
2018-07-02T21:27:44.465Z,955.1
2018-07-02T21:29:47.306Z,955.1
2018-07-02T21:31:50.156Z,955.1
2018-07-02T21:33:53.005Z,955.1
2018-07-02T21:35:55.845Z,955.1
2018-07-02T21:37:58.687Z,955.1
2018-07-02T21:40:01.534Z,955.1
2018-07-02T21:42:04.485Z,955
2018-07-02T21:44:07.293Z,954.9
2018-07-02T21:46:10.137Z,954.9
2018-07-02T21:48:12.981Z,955
2018-07-02T21:50:15.823Z,955
2018-07-02T21:52:18.670Z,955
2018-07-02T21:54:21.513Z,955
2018-07-02T21:56:24.380Z,955
2018-07-02T21:58:27.217Z,954.9
2018-07-02T22:00:30.076Z,954.9
2018-07-02T22:02:32.985Z,954.8
2018-07-02T22:04:35.831Z,954.8
2018-07-02T22:06:38.676Z,954.8
2018-07-02T22:08:41.520Z,954.9
2018-07-02T22:10:44.364Z,954.9
2018-07-02T22:12:47.206Z,954.9
2018-07-02T22:14:50.074Z,954.9
2018-07-02T22:16:52.919Z,954.9
2018-07-02T22:18:55.763Z,954.9
2018-07-02T22:20:58.608Z,954.9
2018-07-02T22:23:01.449Z,954.9
2018-07-02T22:25:04.295Z,954.9
2018-07-02T22:27:07.137Z,955
2018-07-02T22:29:09.984Z,954.9
2018-07-02T22:31:12.856Z,954.9
2018-07-02T22:33:15.699Z,954.8
2018-07-02T22:35:18.561Z,954.8
2018-07-02T22:37:21.402Z,954.7
2018-07-02T22:39:24.243Z,954.7
2018-07-02T22:41:27.089Z,954.7
2018-07-02T22:43:30.075Z,954.7
2018-07-02T22:45:33.306Z,954.7
2018-07-02T22:47:36.149Z,954.7
2018-07-02T22:49:39.045Z,954.6
2018-07-02T22:51:41.989Z,954.7
2018-07-02T22:53:44.859Z,954.6
2018-07-02T22:55:47.705Z,954.7
2018-07-02T22:57:50.545Z,954.8
2018-07-02T22:59:53.388Z,954.7
2018-07-02T23:01:56.231Z,954.8
2018-07-02T23:03:59.111Z,954.7
2018-07-02T23:06:01.952Z,954.8
2018-07-02T23:08:04.973Z,954.6
2018-07-02T23:10:07.811Z,954.7
2018-07-02T23:12:10.659Z,954.7
2018-07-02T23:14:13.495Z,954.8
2018-07-02T23:16:16.338Z,954.7
2018-07-02T23:18:19.183Z,954.7
2018-07-02T23:20:22.022Z,954.7
2018-07-02T23:22:24.864Z,954.8
2018-07-02T23:24:27.937Z,954.8
2018-07-02T23:26:30.778Z,954.7
2018-07-02T23:28:33.675Z,954.7
2018-07-02T23:30:36.513Z,954.7
2018-07-02T23:32:39.358Z,954.8
2018-07-02T23:34:42.201Z,954.7
2018-07-02T23:36:45.104Z,954.7
2018-07-02T23:38:47.934Z,954.7
2018-07-02T23:40:50.778Z,954.7
2018-07-02T23:42:53.657Z,954.8
2018-07-02T23:44:56.500Z,954.8
2018-07-02T23:46:59.341Z,954.8
2018-07-02T23:49:02.182Z,954.7
2018-07-02T23:51:05.026Z,954.7
2018-07-02T23:53:07.868Z,954.6
2018-07-02T23:55:10.710Z,954.5
2018-07-02T23:57:13.560Z,954.5
2018-07-02T23:59:16.440Z,954.5
